sensor_id;sensor_type;location;lat;lon;timestamp;P1;durP1;ratioP1;P2;durP2;ratioP2
76548;SDS011;65391;52.068;4.542;2023-06-22T00:01:58;26.1;;;17.3;;
76548;SDS011;65391;52.068;4.542;2023-06-22T00:04:23;26.1;;;17.3;;
76548;SDS011;65391;52.068;4.542;2023-06-22T00:06:48;23.1;;;13.3;;
76548;SDS011;65391;52.068;4.542;2023-06-22T00:09:13;23.1;;;13.3;;
76548;SDS011;65391;52.068;4.542;2023-06-22T00:11:38;23.1;;;13.3;;
76548;SDS011;65391;52.068;4.542;2023-06-22T00:14:03;23.1;;;13.3;;
76548;SDS011;65391;52.068;4.542;2023-06-22T00:16:28;23.1;;;13.5;;
76548;SDS011;65391;52.068;4.542;2023-06-22T00:18:53;23.1;;;13.5;;
76548;SDS011;65391;52.068;4.542;2023-06-22T00:21:18;23.1;;;13.5;;
76548;SDS011;65391;52.068;4.542;2023-06-22T00:23:43;23.1;;;13.5;;
76548;SDS011;65391;52.068;4.542;2023-06-22T00:26:08;24.8;;;15.3;;
76548;SDS011;65391;52.068;4.542;2023-06-22T00:28:33;24.8;;;15.3;;
76548;SDS011;65391;52.068;4.542;2023-06-22T00:30:58;24.8;;;15.3;;
76548;SDS011;65391;52.068;4.542;2023-06-22T00:33:23;24.8;;;15.3;;
76548;SDS011;65391;52.068;4.542;2023-06-22T00:35:48;24.1;;;14.4;;
76548;SDS011;65391;52.068;4.542;2023-06-22T00:38:13;24.1;;;14.4;;
76548;SDS011;65391;52.068;4.542;2023-06-22T00:40:38;24.1;;;14.4;;
76548;SDS011;65391;52.068;4.542;2023-06-22T00:43:03;24.1;;;14.4;;
76548;SDS011;65391;52.068;4.542;2023-06-22T00:45:28;22.6;;;13.2;;
76548;SDS011;65391;52.068;4.542;2023-06-22T00:47:54;22.6;;;13.2;;
76548;SDS011;65391;52.068;4.542;2023-06-22T00:50:20;22.6;;;13.2;;
76548;SDS011;65391;52.068;4.542;2023-06-22T00:52:43;22.6;;;13.2;;
76548;SDS011;65391;52.068;4.542;2023-06-22T00:55:08;22.6;;;13.2;;
76548;SDS011;65391;52.068;4.542;2023-06-22T00:57:33;25.2;;;16.2;;
76548;SDS011;65391;52.068;4.542;2023-06-22T00:59:58;25.2;;;16.2;;
76548;SDS011;65391;52.068;4.542;2023-06-22T01:02:23;25.2;;;16.2;;
76548;SDS011;65391;52.068;4.542;2023-06-22T01:04:48;25.2;;;16.2;;
76548;SDS011;65391;52.068;4.542;2023-06-22T01:07:17;26.6;;;17.6;;
76548;SDS011;65391;52.068;4.542;2023-06-22T01:09:42;26.6;;;17.6;;
76548;SDS011;65391;52.068;4.542;2023-06-22T01:12:04;26.6;;;17.6;;
76548;SDS011;65391;52.068;4.542;2023-06-22T01:14:32;26.6;;;17.6;;
76548;SDS011;65391;52.068;4.542;2023-06-22T01:16:53;26.5;;;17.6;;
76548;SDS011;65391;52.068;4.542;2023-06-22T01:19:29;26.5;;;17.6;;
76548;SDS011;65391;52.068;4.542;2023-06-22T01:21:43;26.5;;;17.6;;
76548;SDS011;65391;52.068;4.542;2023-06-22T01:24:14;26.5;;;17.6;;
76548;SDS011;65391;52.068;4.542;2023-06-22T01:26:37;26.1;;;17.2;;
76548;SDS011;65391;52.068;4.542;2023-06-22T01:28:58;26.1;;;17.2;;
76548;SDS011;65391;52.068;4.542;2023-06-22T01:31:24;26.1;;;17.2;;
76548;SDS011;65391;52.068;4.542;2023-06-22T01:33:51;26.1;;;17.2;;
76548;SDS011;65391;52.068;4.542;2023-06-22T01:36:13;25.1;;;16.8;;
76548;SDS011;65391;52.068;4.542;2023-06-22T01:38:38;25.1;;;16.8;;
76548;SDS011;65391;52.068;4.542;2023-06-22T01:41:03;25.1;;;16.8;;
76548;SDS011;65391;52.068;4.542;2023-06-22T01:43:28;25.1;;;16.8;;
76548;SDS011;65391;52.068;4.542;2023-06-22T01:45:53;25;;;16;;
76548;SDS011;65391;52.068;4.542;2023-06-22T01:48:18;25;;;16;;
76548;SDS011;65391;52.068;4.542;2023-06-22T01:50:43;25;;;16;;
76548;SDS011;65391;52.068;4.542;2023-06-22T01:53:08;25;;;16;;
76548;SDS011;65391;52.068;4.542;2023-06-22T01:55:33;24.4;;;15.6;;
76548;SDS011;65391;52.068;4.542;2023-06-22T01:57:58;24.4;;;15.6;;
76548;SDS011;65391;52.068;4.542;2023-06-22T02:00:23;24.4;;;15.6;;
76548;SDS011;65391;52.068;4.542;2023-06-22T02:02:52;24.4;;;15.6;;
76548;SDS011;65391;52.068;4.542;2023-06-22T02:05:15;24.4;;;15.6;;
76548;SDS011;65391;52.068;4.542;2023-06-22T02:07:41;24.6;;;15.6;;
76548;SDS011;65391;52.068;4.542;2023-06-22T02:10:04;24.6;;;15.6;;
76548;SDS011;65391;52.068;4.542;2023-06-22T02:12:28;24.6;;;15.6;;
76548;SDS011;65391;52.068;4.542;2023-06-22T02:14:54;24.6;;;15.6;;
76548;SDS011;65391;52.068;4.542;2023-06-22T02:17:18;24;;;15.1;;
76548;SDS011;65391;52.068;4.542;2023-06-22T02:19:43;24;;;15.1;;
76548;SDS011;65391;52.068;4.542;2023-06-22T02:22:08;24;;;15.1;;
76548;SDS011;65391;52.068;4.542;2023-06-22T02:24:33;24;;;15.1;;
76548;SDS011;65391;52.068;4.542;2023-06-22T02:26:59;25.8;;;17.1;;
76548;SDS011;65391;52.068;4.542;2023-06-22T02:29:23;25.8;;;17.1;;
76548;SDS011;65391;52.068;4.542;2023-06-22T02:31:48;25.8;;;17.1;;
76548;SDS011;65391;52.068;4.542;2023-06-22T02:34:13;25.8;;;17.1;;
76548;SDS011;65391;52.068;4.542;2023-06-22T02:36:38;24.3;;;16.2;;
76548;SDS011;65391;52.068;4.542;2023-06-22T02:39:03;24.3;;;16.2;;
76548;SDS011;65391;52.068;4.542;2023-06-22T02:41:28;24.3;;;16.2;;
76548;SDS011;65391;52.068;4.542;2023-06-22T02:43:53;24.3;;;16.2;;
76548;SDS011;65391;52.068;4.542;2023-06-22T02:46:18;24.5;;;16.1;;
76548;SDS011;65391;52.068;4.542;2023-06-22T02:48:43;24.5;;;16.1;;
76548;SDS011;65391;52.068;4.542;2023-06-22T02:51:08;24.5;;;16.1;;
76548;SDS011;65391;52.068;4.542;2023-06-22T02:53:33;24.5;;;16.1;;
76548;SDS011;65391;52.068;4.542;2023-06-22T02:55:58;24;;;15.3;;
76548;SDS011;65391;52.068;4.542;2023-06-22T02:58:23;24;;;15.3;;
76548;SDS011;65391;52.068;4.542;2023-06-22T03:00:48;24;;;15.3;;
76548;SDS011;65391;52.068;4.542;2023-06-22T03:03:13;24;;;15.3;;
76548;SDS011;65391;52.068;4.542;2023-06-22T03:05:38;24;;;15.3;;
76548;SDS011;65391;52.068;4.542;2023-06-22T03:08:03;23.4;;;14.9;;
76548;SDS011;65391;52.068;4.542;2023-06-22T03:10:28;23.4;;;14.9;;
76548;SDS011;65391;52.068;4.542;2023-06-22T03:12:54;23.4;;;14.9;;
76548;SDS011;65391;52.068;4.542;2023-06-22T03:15:18;23.4;;;14.9;;
76548;SDS011;65391;52.068;4.542;2023-06-22T03:17:43;22.9;;;14.3;;
76548;SDS011;65391;52.068;4.542;2023-06-22T03:20:09;22.9;;;14.3;;
76548;SDS011;65391;52.068;4.542;2023-06-22T03:22:33;22.9;;;14.3;;
76548;SDS011;65391;52.068;4.542;2023-06-22T03:24:58;22.9;;;14.3;;
76548;SDS011;65391;52.068;4.542;2023-06-22T03:27:23;23.9;;;15.5;;
76548;SDS011;65391;52.068;4.542;2023-06-22T03:29:48;23.9;;;15.5;;
76548;SDS011;65391;52.068;4.542;2023-06-22T03:32:13;23.9;;;15.5;;
76548;SDS011;65391;52.068;4.542;2023-06-22T03:34:38;23.9;;;15.5;;
76548;SDS011;65391;52.068;4.542;2023-06-22T03:37:03;22.9;;;14.5;;
76548;SDS011;65391;52.068;4.542;2023-06-22T03:39:28;22.9;;;14.5;;
76548;SDS011;65391;52.068;4.542;2023-06-22T03:41:54;22.9;;;14.5;;
76548;SDS011;65391;52.068;4.542;2023-06-22T03:44:19;22.9;;;14.5;;
76548;SDS011;65391;52.068;4.542;2023-06-22T03:46:43;23.8;;;15.1;;
76548;SDS011;65391;52.068;4.542;2023-06-22T03:49:08;23.8;;;15.1;;
76548;SDS011;65391;52.068;4.542;2023-06-22T03:51:33;23.8;;;15.1;;
76548;SDS011;65391;52.068;4.542;2023-06-22T03:53:58;23.8;;;15.1;;
76548;SDS011;65391;52.068;4.542;2023-06-22T03:56:24;24.3;;;16;;
76548;SDS011;65391;52.068;4.542;2023-06-22T03:58:48;24.3;;;16;;
76548;SDS011;65391;52.068;4.542;2023-06-22T04:01:14;24.3;;;16;;
76548;SDS011;65391;52.068;4.542;2023-06-22T04:03:39;24.3;;;16;;
76548;SDS011;65391;52.068;4.542;2023-06-22T04:06:03;23.4;;;15.1;;
76548;SDS011;65391;52.068;4.542;2023-06-22T04:08:29;23.4;;;15.1;;
76548;SDS011;65391;52.068;4.542;2023-06-22T04:10:53;23.4;;;15.1;;
76548;SDS011;65391;52.068;4.542;2023-06-22T04:13:18;23.4;;;15.1;;
76548;SDS011;65391;52.068;4.542;2023-06-22T04:15:44;23.4;;;15.1;;
76548;SDS011;65391;52.068;4.542;2023-06-22T04:18:09;24.2;;;16.4;;
76548;SDS011;65391;52.068;4.542;2023-06-22T04:20:33;24.2;;;16.4;;
76548;SDS011;65391;52.068;4.542;2023-06-22T04:22:59;24.2;;;16.4;;
76548;SDS011;65391;52.068;4.542;2023-06-22T04:25:24;24.2;;;16.4;;
76548;SDS011;65391;52.068;4.542;2023-06-22T04:27:49;24.7;;;16.7;;
76548;SDS011;65391;52.068;4.542;2023-06-22T04:30:14;24.7;;;16.7;;
76548;SDS011;65391;52.068;4.542;2023-06-22T04:32:39;24.7;;;16.7;;
76548;SDS011;65391;52.068;4.542;2023-06-22T04:35:04;24.7;;;16.7;;
76548;SDS011;65391;52.068;4.542;2023-06-22T04:37:28;23.3;;;15.2;;
76548;SDS011;65391;52.068;4.542;2023-06-22T04:39:54;23.3;;;15.2;;
76548;SDS011;65391;52.068;4.542;2023-06-22T04:42:19;23.3;;;15.2;;
76548;SDS011;65391;52.068;4.542;2023-06-22T04:44:44;23.3;;;15.2;;
76548;SDS011;65391;52.068;4.542;2023-06-22T04:47:09;23.8;;;15.8;;
76548;SDS011;65391;52.068;4.542;2023-06-22T04:49:34;23.8;;;15.8;;
76548;SDS011;65391;52.068;4.542;2023-06-22T04:51:59;23.8;;;15.8;;
76548;SDS011;65391;52.068;4.542;2023-06-22T04:54:24;23.8;;;15.8;;
76548;SDS011;65391;52.068;4.542;2023-06-22T04:56:49;24.2;;;15.7;;
76548;SDS011;65391;52.068;4.542;2023-06-22T04:59:14;24.2;;;15.7;;
76548;SDS011;65391;52.068;4.542;2023-06-22T05:01:39;24.2;;;15.7;;
76548;SDS011;65391;52.068;4.542;2023-06-22T05:04:04;24.2;;;15.7;;
76548;SDS011;65391;52.068;4.542;2023-06-22T05:06:29;24.9;;;15.9;;
76548;SDS011;65391;52.068;4.542;2023-06-22T05:08:54;24.9;;;15.9;;
76548;SDS011;65391;52.068;4.542;2023-06-22T05:11:19;24.9;;;15.9;;
76548;SDS011;65391;52.068;4.542;2023-06-22T05:13:44;24.9;;;15.9;;
76548;SDS011;65391;52.068;4.542;2023-06-22T05:16:09;26;;;16.7;;
76548;SDS011;65391;52.068;4.542;2023-06-22T05:18:34;26;;;16.7;;
76548;SDS011;65391;52.068;4.542;2023-06-22T05:20:59;26;;;16.7;;
76548;SDS011;65391;52.068;4.542;2023-06-22T05:23:24;26;;;16.7;;
76548;SDS011;65391;52.068;4.542;2023-06-22T05:25:49;26;;;16.7;;
76548;SDS011;65391;52.068;4.542;2023-06-22T05:28:14;25.3;;;15.6;;
76548;SDS011;65391;52.068;4.542;2023-06-22T05:30:39;25.3;;;15.6;;
76548;SDS011;65391;52.068;4.542;2023-06-22T05:33:04;25.3;;;15.6;;
76548;SDS011;65391;52.068;4.542;2023-06-22T05:35:29;25.3;;;15.6;;
76548;SDS011;65391;52.068;4.542;2023-06-22T05:37:54;24.8;;;14.6;;
76548;SDS011;65391;52.068;4.542;2023-06-22T05:40:19;24.8;;;14.6;;
76548;SDS011;65391;52.068;4.542;2023-06-22T05:42:44;24.8;;;14.6;;
76548;SDS011;65391;52.068;4.542;2023-06-22T05:45:09;24.8;;;14.6;;
76548;SDS011;65391;52.068;4.542;2023-06-22T05:47:34;25.9;;;15.6;;
76548;SDS011;65391;52.068;4.542;2023-06-22T05:49:59;25.9;;;15.6;;
76548;SDS011;65391;52.068;4.542;2023-06-22T05:52:24;25.9;;;15.6;;
76548;SDS011;65391;52.068;4.542;2023-06-22T05:54:49;25.9;;;15.6;;
76548;SDS011;65391;52.068;4.542;2023-06-22T05:57:14;24.5;;;14.3;;
76548;SDS011;65391;52.068;4.542;2023-06-22T05:59:39;24.5;;;14.3;;
76548;SDS011;65391;52.068;4.542;2023-06-22T06:02:04;24.5;;;14.3;;
76548;SDS011;65391;52.068;4.542;2023-06-22T06:04:29;24.5;;;14.3;;
76548;SDS011;65391;52.068;4.542;2023-06-22T06:06:54;23.5;;;13.5;;
76548;SDS011;65391;52.068;4.542;2023-06-22T06:09:19;23.5;;;13.5;;
76548;SDS011;65391;52.068;4.542;2023-06-22T06:11:44;23.5;;;13.5;;
76548;SDS011;65391;52.068;4.542;2023-06-22T06:14:09;23.5;;;13.5;;
76548;SDS011;65391;52.068;4.542;2023-06-22T06:16:34;19.2;;;10.7;;
76548;SDS011;65391;52.068;4.542;2023-06-22T06:18:59;19.2;;;10.7;;
76548;SDS011;65391;52.068;4.542;2023-06-22T06:21:24;19.2;;;10.7;;
76548;SDS011;65391;52.068;4.542;2023-06-22T06:23:49;19.2;;;10.7;;
76548;SDS011;65391;52.068;4.542;2023-06-22T06:26:14;16.9;;;11.5;;
76548;SDS011;65391;52.068;4.542;2023-06-22T06:28:39;16.9;;;11.5;;
76548;SDS011;65391;52.068;4.542;2023-06-22T06:31:04;16.9;;;11.5;;
76548;SDS011;65391;52.068;4.542;2023-06-22T06:33:29;16.9;;;11.5;;
76548;SDS011;65391;52.068;4.542;2023-06-22T06:35:54;16.9;;;11.5;;
76548;SDS011;65391;52.068;4.542;2023-06-22T06:38:19;18.2;;;11.2;;
76548;SDS011;65391;52.068;4.542;2023-06-22T06:40:44;18.2;;;11.2;;
76548;SDS011;65391;52.068;4.542;2023-06-22T06:43:09;18.2;;;11.2;;
76548;SDS011;65391;52.068;4.542;2023-06-22T06:45:34;18.2;;;11.2;;
76548;SDS011;65391;52.068;4.542;2023-06-22T06:47:59;17.8;;;11.4;;
76548;SDS011;65391;52.068;4.542;2023-06-22T06:50:24;17.8;;;11.4;;
76548;SDS011;65391;52.068;4.542;2023-06-22T06:52:49;17.8;;;11.4;;
76548;SDS011;65391;52.068;4.542;2023-06-22T06:55:14;17.8;;;11.4;;
76548;SDS011;65391;52.068;4.542;2023-06-22T06:57:40;16.9;;;11.6;;
76548;SDS011;65391;52.068;4.542;2023-06-22T07:00:05;16.9;;;11.6;;
76548;SDS011;65391;52.068;4.542;2023-06-22T07:02:29;16.9;;;11.6;;
76548;SDS011;65391;52.068;4.542;2023-06-22T07:04:54;16.9;;;11.6;;
76548;SDS011;65391;52.068;4.542;2023-06-22T07:07:19;14.8;;;10.6;;
76548;SDS011;65391;52.068;4.542;2023-06-22T07:09:44;14.8;;;10.6;;
76548;SDS011;65391;52.068;4.542;2023-06-22T07:12:09;14.8;;;10.6;;
76548;SDS011;65391;52.068;4.542;2023-06-22T07:14:34;14.8;;;10.6;;
76548;SDS011;65391;52.068;4.542;2023-06-22T07:16:59;12.9;;;9.7;;
76548;SDS011;65391;52.068;4.542;2023-06-22T07:19:24;12.9;;;9.7;;
76548;SDS011;65391;52.068;4.542;2023-06-22T07:21:49;12.9;;;9.7;;
76548;SDS011;65391;52.068;4.542;2023-06-22T07:24:14;12.9;;;9.7;;
76548;SDS011;65391;52.068;4.542;2023-06-22T07:26:39;10.3;;;7.1;;
76548;SDS011;65391;52.068;4.542;2023-06-22T07:29:04;10.3;;;7.1;;
76548;SDS011;65391;52.068;4.542;2023-06-22T07:31:29;10.3;;;7.1;;
76548;SDS011;65391;52.068;4.542;2023-06-22T07:33:54;10.3;;;7.1;;
76548;SDS011;65391;52.068;4.542;2023-06-22T07:36:19;8.8;;;6;;
76548;SDS011;65391;52.068;4.542;2023-06-22T07:38:44;8.8;;;6;;
76548;SDS011;65391;52.068;4.542;2023-06-22T07:41:09;8.8;;;6;;
76548;SDS011;65391;52.068;4.542;2023-06-22T07:43:34;8.8;;;6;;
76548;SDS011;65391;52.068;4.542;2023-06-22T07:45:59;8.8;;;6;;
76548;SDS011;65391;52.068;4.542;2023-06-22T07:48:24;7.2;;;4.5;;
76548;SDS011;65391;52.068;4.542;2023-06-22T07:50:49;7.2;;;4.5;;
76548;SDS011;65391;52.068;4.542;2023-06-22T07:53:14;7.2;;;4.5;;
76548;SDS011;65391;52.068;4.542;2023-06-22T07:55:39;7.2;;;4.5;;
76548;SDS011;65391;52.068;4.542;2023-06-22T07:58:04;7.4;;;4.3;;
76548;SDS011;65391;52.068;4.542;2023-06-22T08:00:29;7.4;;;4.3;;
76548;SDS011;65391;52.068;4.542;2023-06-22T08:02:54;7.4;;;4.3;;
76548;SDS011;65391;52.068;4.542;2023-06-22T08:05:19;7.4;;;4.3;;
76548;SDS011;65391;52.068;4.542;2023-06-22T08:07:44;7.6;;;4.3;;
76548;SDS011;65391;52.068;4.542;2023-06-22T08:10:10;7.6;;;4.3;;
76548;SDS011;65391;52.068;4.542;2023-06-22T08:12:34;7.6;;;4.3;;
76548;SDS011;65391;52.068;4.542;2023-06-22T08:14:59;7.6;;;4.3;;
76548;SDS011;65391;52.068;4.542;2023-06-22T08:17:24;6.2;;;3;;
76548;SDS011;65391;52.068;4.542;2023-06-22T08:19:49;6.2;;;3;;
76548;SDS011;65391;52.068;4.542;2023-06-22T08:22:15;6.2;;;3;;
76548;SDS011;65391;52.068;4.542;2023-06-22T08:24:39;6.2;;;3;;
76548;SDS011;65391;52.068;4.542;2023-06-22T08:27:06;4;;;2.2;;
76548;SDS011;65391;52.068;4.542;2023-06-22T08:29:29;4;;;2.2;;
76548;SDS011;65391;52.068;4.542;2023-06-22T08:31:54;4;;;2.2;;
76548;SDS011;65391;52.068;4.542;2023-06-22T08:34:19;4;;;2.2;;
76548;SDS011;65391;52.068;4.542;2023-06-22T08:36:44;6.8;;;4.5;;
76548;SDS011;65391;52.068;4.542;2023-06-22T08:39:09;6.8;;;4.5;;
76548;SDS011;65391;52.068;4.542;2023-06-22T08:41:34;6.8;;;4.5;;
76548;SDS011;65391;52.068;4.542;2023-06-22T08:43:59;6.8;;;4.5;;
76548;SDS011;65391;52.068;4.542;2023-06-22T08:46:24;10.1;;;6.6;;
76548;SDS011;65391;52.068;4.542;2023-06-22T08:48:49;10.1;;;6.6;;
76548;SDS011;65391;52.068;4.542;2023-06-22T08:51:14;10.1;;;6.6;;
76548;SDS011;65391;52.068;4.542;2023-06-22T08:53:39;10.1;;;6.6;;
76548;SDS011;65391;52.068;4.542;2023-06-22T08:56:04;10.1;;;6.6;;
76548;SDS011;65391;52.068;4.542;2023-06-22T08:58:29;9.9;;;7.9;;
76548;SDS011;65391;52.068;4.542;2023-06-22T09:00:54;9.9;;;7.9;;
76548;SDS011;65391;52.068;4.542;2023-06-22T09:03:19;9.9;;;7.9;;
76548;SDS011;65391;52.068;4.542;2023-06-22T09:05:44;9.9;;;7.9;;
76548;SDS011;65391;52.068;4.542;2023-06-22T09:08:10;11.2;;;7.5;;
76548;SDS011;65391;52.068;4.542;2023-06-22T09:10:34;11.2;;;7.5;;
76548;SDS011;65391;52.068;4.542;2023-06-22T09:12:59;11.2;;;7.5;;
76548;SDS011;65391;52.068;4.542;2023-06-22T09:15:24;11.2;;;7.5;;
76548;SDS011;65391;52.068;4.542;2023-06-22T09:17:50;9.5;;;6.4;;
76548;SDS011;65391;52.068;4.542;2023-06-22T09:20:14;9.5;;;6.4;;
76548;SDS011;65391;52.068;4.542;2023-06-22T09:22:39;9.5;;;6.4;;
76548;SDS011;65391;52.068;4.542;2023-06-22T09:25:05;9.5;;;6.4;;
76548;SDS011;65391;52.068;4.542;2023-06-22T09:27:29;9.5;;;5.5;;
76548;SDS011;65391;52.068;4.542;2023-06-22T09:29:54;9.5;;;5.5;;
76548;SDS011;65391;52.068;4.542;2023-06-22T09:32:19;9.5;;;5.5;;
76548;SDS011;65391;52.068;4.542;2023-06-22T09:34:44;9.5;;;5.5;;
76548;SDS011;65391;52.068;4.542;2023-06-22T09:37:09;10.8;;;7.4;;
76548;SDS011;65391;52.068;4.542;2023-06-22T09:39:34;10.8;;;7.4;;
76548;SDS011;65391;52.068;4.542;2023-06-22T09:41:59;10.8;;;7.4;;
76548;SDS011;65391;52.068;4.542;2023-06-22T09:44:24;10.8;;;7.4;;
76548;SDS011;65391;52.068;4.542;2023-06-22T09:46:49;9.2;;;5.6;;
76548;SDS011;65391;52.068;4.542;2023-06-22T09:49:14;9.2;;;5.6;;
76548;SDS011;65391;52.068;4.542;2023-06-22T09:51:39;9.2;;;5.6;;
76548;SDS011;65391;52.068;4.542;2023-06-22T09:54:04;9.2;;;5.6;;
76548;SDS011;65391;52.068;4.542;2023-06-22T09:56:29;7.2;;;4.6;;
76548;SDS011;65391;52.068;4.542;2023-06-22T09:58:54;7.2;;;4.6;;
76548;SDS011;65391;52.068;4.542;2023-06-22T10:01:19;7.2;;;4.6;;
76548;SDS011;65391;52.068;4.542;2023-06-22T10:03:44;7.2;;;4.6;;
76548;SDS011;65391;52.068;4.542;2023-06-22T10:06:09;7.2;;;4.6;;
76548;SDS011;65391;52.068;4.542;2023-06-22T10:08:35;8.1;;;5.3;;
76548;SDS011;65391;52.068;4.542;2023-06-22T10:11:00;8.1;;;5.3;;
76548;SDS011;65391;52.068;4.542;2023-06-22T10:13:24;8.1;;;5.3;;
76548;SDS011;65391;52.068;4.542;2023-06-22T10:15:49;8.1;;;5.3;;
76548;SDS011;65391;52.068;4.542;2023-06-22T10:18:14;7;;;5.7;;
76548;SDS011;65391;52.068;4.542;2023-06-22T10:20:39;7;;;5.7;;
76548;SDS011;65391;52.068;4.542;2023-06-22T10:23:04;7;;;5.7;;
76548;SDS011;65391;52.068;4.542;2023-06-22T10:25:29;7;;;5.7;;
76548;SDS011;65391;52.068;4.542;2023-06-22T10:27:54;7.7;;;5.3;;
76548;SDS011;65391;52.068;4.542;2023-06-22T10:30:19;7.7;;;5.3;;
76548;SDS011;65391;52.068;4.542;2023-06-22T10:32:44;7.7;;;5.3;;
76548;SDS011;65391;52.068;4.542;2023-06-22T10:35:09;7.7;;;5.3;;
76548;SDS011;65391;52.068;4.542;2023-06-22T10:37:35;7.6;;;6.2;;
76548;SDS011;65391;52.068;4.542;2023-06-22T10:39:59;7.6;;;6.2;;
76548;SDS011;65391;52.068;4.542;2023-06-22T10:42:24;7.6;;;6.2;;
76548;SDS011;65391;52.068;4.542;2023-06-22T10:44:49;7.6;;;6.2;;
76548;SDS011;65391;52.068;4.542;2023-06-22T10:47:14;8.6;;;6.6;;
76548;SDS011;65391;52.068;4.542;2023-06-22T10:49:39;8.6;;;6.6;;
76548;SDS011;65391;52.068;4.542;2023-06-22T10:52:05;8.6;;;6.6;;
76548;SDS011;65391;52.068;4.542;2023-06-22T10:54:29;8.6;;;6.6;;
76548;SDS011;65391;52.068;4.542;2023-06-22T10:56:54;11.4;;;8.3;;
76548;SDS011;65391;52.068;4.542;2023-06-22T10:59:19;11.4;;;8.3;;
76548;SDS011;65391;52.068;4.542;2023-06-22T11:01:44;11.4;;;8.3;;
76548;SDS011;65391;52.068;4.542;2023-06-22T11:04:10;11.4;;;8.3;;
76548;SDS011;65391;52.068;4.542;2023-06-22T11:06:34;10.6;;;8.7;;
76548;SDS011;65391;52.068;4.542;2023-06-22T11:08:59;10.6;;;8.7;;
76548;SDS011;65391;52.068;4.542;2023-06-22T11:11:25;10.6;;;8.7;;
76548;SDS011;65391;52.068;4.542;2023-06-22T11:13:49;10.6;;;8.7;;
76548;SDS011;65391;52.068;4.542;2023-06-22T11:16:14;10.6;;;8.7;;
76548;SDS011;65391;52.068;4.542;2023-06-22T11:18:39;13.2;;;10;;
76548;SDS011;65391;52.068;4.542;2023-06-22T11:21:05;13.2;;;10;;
76548;SDS011;65391;52.068;4.542;2023-06-22T11:23:29;13.2;;;10;;
76548;SDS011;65391;52.068;4.542;2023-06-22T11:25:54;13.2;;;10;;
76548;SDS011;65391;52.068;4.542;2023-06-22T11:28:19;14.6;;;10.2;;
76548;SDS011;65391;52.068;4.542;2023-06-22T11:30:44;14.6;;;10.2;;
76548;SDS011;65391;52.068;4.542;2023-06-22T11:33:10;14.6;;;10.2;;
76548;SDS011;65391;52.068;4.542;2023-06-22T11:35:34;14.6;;;10.2;;
76548;SDS011;65391;52.068;4.542;2023-06-22T11:38:00;15.4;;;11.9;;
76548;SDS011;65391;52.068;4.542;2023-06-22T11:40:25;15.4;;;11.9;;
76548;SDS011;65391;52.068;4.542;2023-06-22T11:42:49;15.4;;;11.9;;
76548;SDS011;65391;52.068;4.542;2023-06-22T11:45:15;15.4;;;11.9;;
76548;SDS011;65391;52.068;4.542;2023-06-22T11:47:40;19.5;;;14.5;;
76548;SDS011;65391;52.068;4.542;2023-06-22T11:50:06;19.5;;;14.5;;
76548;SDS011;65391;52.068;4.542;2023-06-22T11:52:30;19.5;;;14.5;;
76548;SDS011;65391;52.068;4.542;2023-06-22T11:54:55;19.5;;;14.5;;
76548;SDS011;65391;52.068;4.542;2023-06-22T11:57:20;19;;;14.1;;
76548;SDS011;65391;52.068;4.542;2023-06-22T11:59:45;19;;;14.1;;
76548;SDS011;65391;52.068;4.542;2023-06-22T12:02:10;19;;;14.1;;
76548;SDS011;65391;52.068;4.542;2023-06-22T12:04:35;19;;;14.1;;
76548;SDS011;65391;52.068;4.542;2023-06-22T12:07:00;17.2;;;13.3;;
76548;SDS011;65391;52.068;4.542;2023-06-22T12:09:25;17.2;;;13.3;;
76548;SDS011;65391;52.068;4.542;2023-06-22T12:11:50;17.2;;;13.3;;
76548;SDS011;65391;52.068;4.542;2023-06-22T12:14:15;17.2;;;13.3;;
76548;SDS011;65391;52.068;4.542;2023-06-22T12:16:40;19.4;;;12.6;;
76548;SDS011;65391;52.068;4.542;2023-06-22T12:19:05;19.4;;;12.6;;
76548;SDS011;65391;52.068;4.542;2023-06-22T12:21:30;19.4;;;12.6;;
76548;SDS011;65391;52.068;4.542;2023-06-22T12:23:55;19.4;;;12.6;;
76548;SDS011;65391;52.068;4.542;2023-06-22T12:26:20;19.4;;;12.6;;
76548;SDS011;65391;52.068;4.542;2023-06-22T12:28:45;20;;;12.9;;
76548;SDS011;65391;52.068;4.542;2023-06-22T12:31:10;20;;;12.9;;
76548;SDS011;65391;52.068;4.542;2023-06-22T12:33:35;20;;;12.9;;
76548;SDS011;65391;52.068;4.542;2023-06-22T12:36:00;20;;;12.9;;
76548;SDS011;65391;52.068;4.542;2023-06-22T12:38:25;21.8;;;14;;
76548;SDS011;65391;52.068;4.542;2023-06-22T12:40:50;21.8;;;14;;
76548;SDS011;65391;52.068;4.542;2023-06-22T12:43:15;21.8;;;14;;
76548;SDS011;65391;52.068;4.542;2023-06-22T12:45:40;21.8;;;14;;
76548;SDS011;65391;52.068;4.542;2023-06-22T12:48:05;21.1;;;14.8;;
76548;SDS011;65391;52.068;4.542;2023-06-22T12:50:30;21.1;;;14.8;;
76548;SDS011;65391;52.068;4.542;2023-06-22T12:52:55;21.1;;;14.8;;
76548;SDS011;65391;52.068;4.542;2023-06-22T12:55:20;21.1;;;14.8;;
76548;SDS011;65391;52.068;4.542;2023-06-22T12:57:45;24.1;;;17.3;;
76548;SDS011;65391;52.068;4.542;2023-06-22T13:00:10;24.1;;;17.3;;
76548;SDS011;65391;52.068;4.542;2023-06-22T13:02:35;24.1;;;17.3;;
76548;SDS011;65391;52.068;4.542;2023-06-22T13:05:00;24.1;;;17.3;;
76548;SDS011;65391;52.068;4.542;2023-06-22T13:07:25;20.4;;;15.1;;
76548;SDS011;65391;52.068;4.542;2023-06-22T13:09:50;20.4;;;15.1;;
76548;SDS011;65391;52.068;4.542;2023-06-22T13:12:15;20.4;;;15.1;;
76548;SDS011;65391;52.068;4.542;2023-06-22T13:14:40;20.4;;;15.1;;
76548;SDS011;65391;52.068;4.542;2023-06-22T13:17:05;19.7;;;15.3;;
76548;SDS011;65391;52.068;4.542;2023-06-22T13:19:30;19.7;;;15.3;;
76548;SDS011;65391;52.068;4.542;2023-06-22T13:21:55;19.7;;;15.3;;
76548;SDS011;65391;52.068;4.542;2023-06-22T13:24:20;19.7;;;15.3;;
76548;SDS011;65391;52.068;4.542;2023-06-22T13:26:45;19.7;;;15.2;;
76548;SDS011;65391;52.068;4.542;2023-06-22T13:29:10;19.7;;;15.2;;
76548;SDS011;65391;52.068;4.542;2023-06-22T13:31:35;19.7;;;15.2;;
76548;SDS011;65391;52.068;4.542;2023-06-22T13:34:00;19.7;;;15.2;;
76548;SDS011;65391;52.068;4.542;2023-06-22T13:36:25;19.7;;;15.2;;
76548;SDS011;65391;52.068;4.542;2023-06-22T13:38:50;18.3;;;13.9;;
76548;SDS011;65391;52.068;4.542;2023-06-22T13:41:15;18.3;;;13.9;;
76548;SDS011;65391;52.068;4.542;2023-06-22T13:43:40;18.3;;;13.9;;
76548;SDS011;65391;52.068;4.542;2023-06-22T13:46:05;18.3;;;13.9;;
76548;SDS011;65391;52.068;4.542;2023-06-22T13:48:30;20.7;;;13.9;;
76548;SDS011;65391;52.068;4.542;2023-06-22T13:50:55;20.7;;;13.9;;
76548;SDS011;65391;52.068;4.542;2023-06-22T13:53:20;20.7;;;13.9;;
76548;SDS011;65391;52.068;4.542;2023-06-22T13:55:45;20.7;;;13.9;;
76548;SDS011;65391;52.068;4.542;2023-06-22T13:58:10;16.6;;;11.8;;
76548;SDS011;65391;52.068;4.542;2023-06-22T14:00:35;16.6;;;11.8;;
76548;SDS011;65391;52.068;4.542;2023-06-22T14:03:00;16.6;;;11.8;;
76548;SDS011;65391;52.068;4.542;2023-06-22T14:05:25;16.6;;;11.8;;
76548;SDS011;65391;52.068;4.542;2023-06-22T14:07:50;19;;;11.4;;
76548;SDS011;65391;52.068;4.542;2023-06-22T14:10:15;19;;;11.4;;
76548;SDS011;65391;52.068;4.542;2023-06-22T14:12:40;19;;;11.4;;
76548;SDS011;65391;52.068;4.542;2023-06-22T14:15:06;19;;;11.4;;
76548;SDS011;65391;52.068;4.542;2023-06-22T14:17:30;15.6;;;11.3;;
76548;SDS011;65391;52.068;4.542;2023-06-22T14:19:55;15.6;;;11.3;;
76548;SDS011;65391;52.068;4.542;2023-06-22T14:22:20;15.6;;;11.3;;
76548;SDS011;65391;52.068;4.542;2023-06-22T14:24:45;15.6;;;11.3;;
76548;SDS011;65391;52.068;4.542;2023-06-22T14:27:10;14.6;;;11.4;;
76548;SDS011;65391;52.068;4.542;2023-06-22T14:29:35;14.6;;;11.4;;
76548;SDS011;65391;52.068;4.542;2023-06-22T14:32:00;14.6;;;11.4;;
76548;SDS011;65391;52.068;4.542;2023-06-22T14:34:25;14.6;;;11.4;;
76548;SDS011;65391;52.068;4.542;2023-06-22T14:36:50;11.4;;;10.2;;
76548;SDS011;65391;52.068;4.542;2023-06-22T14:39:15;11.4;;;10.2;;
76548;SDS011;65391;52.068;4.542;2023-06-22T14:41:40;11.4;;;10.2;;
76548;SDS011;65391;52.068;4.542;2023-06-22T14:44:05;11.4;;;10.2;;